KOLS

Nogales International Airport

Nogales, Arizona, USA
METAR KOLS 210454Z AUTO 02003KT 10SM -RA OVC110 19/17 A3019 RMK AO2 SLPNO P0002 T01940172 TSNO
Observed Flight Rules
Aug-21 @ 04:54 UTC (9 hours ago) Visual Flight Rules
Wind Visibility Clouds Conditions
20° at 3 knots 10 miles
  • Overcast at 11,000' AGL
  • Light Rain
Temperatures Readings Precipitation
Current 19°C / 66°F
Dewpoint 17°C / 63°F
Humidity 88%
Altimeter 30.19" Hg
Pressure 1022 hPa
Elevation 1184
Current Rain 0.02
METAR KOLS 210454Z AUTO 02003KT 10SM -RA OVC110 19/17 A3019 RMK AO2 SLPNO P0002 T01940172 TSNO
Observed Flight Rules
Aug-21 @ 04:54 UTC
(9 hours ago)
VFR
Wind Visibility
20° at 3 knots 10 miles
Clouds
  • Overcast at 11,000' AGL
Conditions
  • Light Rain
Temperature Dewpoint
19°C / 66°F 17°C / 63°F
Humidity Altimeter Pressure
88% 30.19" Hg 1022 hPa
Current Rain
0.02